Time;durP1;ratioP1;P1;durP2;ratioP2;P2;SDS_P1;SDS_P2;PMS_P1;PMS_P2;Temp;Humidity;BMP_temperature;BMP_pressure;BME280_temperature;BME280_humidity;BME280_pressure;Samples;Min_cycle;Max_cycle;Signal;HPM_P1;HPM_P2
2023/02/04 00:00:09;;;;;;;15.80;7.05;;;9.80;99.90;;;;;;5018892;28;20417;-80
2023/02/04 00:02:39;;;;;;;15.63;6.47;;;9.80;99.90;;;;;;5012436;28;20038;-80
2023/02/04 00:05:06;;;;;;;10.90;6.15;;;9.80;99.90;;;;;;5024819;28;20050;-79
2023/02/04 00:07:33;;;;;;;9.40;5.75;;;9.80;99.90;;;;;;5013712;28;20316;-78
2023/02/04 00:10:00;;;;;;;14.20;7.40;;;9.80;99.90;;;;;;5017613;28;20049;-78
2023/02/04 00:12:27;;;;;;;15.10;6.40;;;9.80;99.90;;;;;;5018512;28;20141;-80
2023/02/04 00:14:55;;;;;;;16.65;7.00;;;9.80;99.90;;;;;;5021332;28;20136;-79
2023/02/04 00:17:25;;;;;;;14.02;5.95;;;9.80;99.90;;;;;;5011031;28;20042;-80
2023/02/04 00:19:51;;;;;;;14.07;6.15;;;9.80;99.90;;;;;;5022525;28;20045;-80
2023/02/04 00:22:19;;;;;;;14.43;6.78;;;9.80;99.90;;;;;;5010651;28;20052;-79
2023/02/04 00:24:49;;;;;;;11.20;6.03;;;9.80;99.90;;;;;;5016674;28;20181;-80
2023/02/04 00:27:16;;;;;;;15.35;6.78;;;9.80;99.90;;;;;;5024189;28;20069;-80
2023/02/04 00:29:43;;;;;;;13.73;5.65;;;9.80;99.90;;;;;;5018154;28;20046;-80
2023/02/04 00:32:10;;;;;;;13.55;6.25;;;9.80;99.90;;;;;;5012319;28;20195;-78
2023/02/04 00:34:37;;;;;;;16.08;6.53;;;9.80;99.90;;;;;;5028044;28;20049;-80
2023/02/04 00:37:03;;;;;;;15.02;6.40;;;9.70;99.90;;;;;;5018753;28;20539;-80
2023/02/04 00:39:30;;;;;;;13.60;5.93;;;9.70;99.90;;;;;;5024601;28;20046;-78
2023/02/04 00:41:57;;;;;;;12.40;6.75;;;9.70;99.90;;;;;;5025144;28;20044;-78
2023/02/04 00:44:24;;;;;;;14.80;6.22;;;9.60;99.90;;;;;;5026490;28;20042;-77
2023/02/04 00:46:50;;;;;;;15.85;6.03;;;9.60;99.90;;;;;;5023092;28;20041;-77
2023/02/04 00:49:17;;;;;;;13.77;6.05;;;9.60;99.90;;;;;;5026253;28;20050;-78
2023/02/04 00:51:45;;;;;;;16.98;6.72;;;9.50;99.90;;;;;;5021916;28;20057;-78
2023/02/04 00:54:14;;;;;;;16.83;7.78;;;9.50;99.90;;;;;;5021557;28;20067;-76
2023/02/04 00:56:41;;;;;;;11.88;5.90;;;9.50;99.90;;;;;;5011718;28;20062;-75
2023/02/04 00:59:08;;;;;;;11.50;5.60;;;9.40;99.90;;;;;;4994414;28;20703;-76
2023/02/04 01:01:35;;;;;;;16.70;5.95;;;9.40;99.90;;;;;;5021565;28;20084;-77
2023/02/04 01:04:02;;;;;;;14.93;6.60;;;9.40;99.90;;;;;;5011335;28;20050;-77
2023/02/04 01:06:28;;;;;;;13.43;6.30;;;9.30;99.90;;;;;;5025390;28;20046;-78
2023/02/04 01:08:55;;;;;;;18.02;6.80;;;9.30;99.90;;;;;;5014363;28;20409;-77
2023/02/04 01:11:22;;;;;;;11.73;6.25;;;9.20;99.90;;;;;;5021253;28;20064;-76
2023/02/04 01:13:49;;;;;;;11.18;5.70;;;9.10;99.90;;;;;;5035986;28;20053;-73
2023/02/04 01:16:15;;;;;;;14.73;5.40;;;9.10;99.90;;;;;;5021748;28;20052;-76
2023/02/04 01:18:42;;;;;;;15.18;5.68;;;9.10;99.90;;;;;;5015995;28;20092;-77
2023/02/04 01:21:09;;;;;;;15.80;5.35;;;9.10;99.90;;;;;;5029833;28;20515;-78
2023/02/04 01:23:36;;;;;;;14.02;6.35;;;9.10;99.90;;;;;;5022106;28;20064;-76
2023/02/04 01:26:02;;;;;;;9.50;4.65;;;9.00;99.90;;;;;;5029199;28;20055;-76
2023/02/04 01:28:29;;;;;;;16.00;5.30;;;9.00;99.90;;;;;;5018834;28;20046;-77
2023/02/04 01:30:56;;;;;;;18.15;5.60;;;9.00;99.90;;;;;;5001831;28;20408;-75
2023/02/04 01:33:23;;;;;;;12.75;5.47;;;9.00;99.90;;;;;;5015961;28;20050;-76
2023/02/04 01:35:49;;;;;;;10.60;5.15;;;9.00;99.90;;;;;;5031890;28;20056;-78
2023/02/04 01:38:16;;;;;;;15.27;4.55;;;8.90;99.90;;;;;;5025867;28;20053;-77
2023/02/04 01:40:43;;;;;;;13.88;6.35;;;8.90;99.90;;;;;;5033368;28;20120;-78
2023/02/04 01:43:10;;;;;;;10.57;4.93;;;8.90;99.90;;;;;;5023960;28;20053;-77
2023/02/04 01:45:37;;;;;;;13.13;6.25;;;8.90;99.90;;;;;;5016265;28;20045;-76
2023/02/04 01:48:04;;;;;;;19.63;6.20;;;8.90;99.90;;;;;;5021439;28;20045;-76
2023/02/04 01:50:31;;;;;;;11.65;5.07;;;8.90;99.90;;;;;;5017151;28;20041;-78
2023/02/04 01:52:58;;;;;;;14.50;5.30;;;8.80;99.90;;;;;;5027350;28;20512;-76
2023/02/04 01:55:27;;;;;;;12.05;5.22;;;8.80;99.90;;;;;;5000413;28;20096;-76
2023/02/04 01:57:54;;;;;;;11.88;5.93;;;8.80;99.90;;;;;;5027505;28;20049;-75
2023/02/04 02:00:23;;;;;;;12.57;5.30;;;8.80;99.90;;;;;;5015174;28;20072;-76
2023/02/04 02:02:50;;;;;;;14.90;4.80;;;8.80;99.90;;;;;;5027238;28;20050;-77
2023/02/04 02:05:22;;;;;;;10.10;5.28;;;8.80;99.90;;;;;;5014815;28;20057;-77
2023/02/04 02:07:49;;;;;;;10.85;5.03;;;8.80;99.90;;;;;;5025849;28;20468;-76
2023/02/04 02:10:17;;;;;;;11.48;5.10;;;8.80;99.90;;;;;;5015543;28;20078;-77
2023/02/04 02:12:44;;;;;;;14.40;6.35;;;8.80;99.90;;;;;;4993901;28;20101;-77
2023/02/04 02:15:11;;;;;;;13.93;5.25;;;8.80;99.90;;;;;;5018887;28;20046;-76
2023/02/04 02:17:38;;;;;;;13.45;5.63;;;8.80;99.90;;;;;;5020704;28;20049;-76
2023/02/04 02:20:06;;;;;;;15.00;4.85;;;8.90;99.90;;;;;;5020639;28;20519;-75
2023/02/04 02:22:46;;;;;;;13.13;5.25;;;8.90;99.90;;;;;;5002849;28;20050;-76
2023/02/04 02:25:13;;;;;;;17.73;5.43;;;8.90;99.90;;;;;;5013439;28;20069;-76
2023/02/04 02:27:40;;;;;;;15.07;4.82;;;8.90;99.90;;;;;;5017527;28;20130;-75
2023/02/04 02:30:08;;;;;;;10.90;5.57;;;8.90;99.90;;;;;;4681751;28;10000202;-76
2023/02/04 02:32:35;;;;;;;15.57;5.93;;;9.00;99.90;;;;;;5015849;28;20081;-74
2023/02/04 02:35:02;;;;;;;12.75;6.40;;;9.00;99.90;;;;;;5017836;28;20053;-76
2023/02/04 02:37:29;;;;;;;11.50;5.45;;;9.00;99.90;;;;;;5019154;28;20076;-76
2023/02/04 02:39:56;;;;;;;12.05;4.90;;;9.00;99.90;;;;;;5029210;28;20118;-77
2023/02/04 02:42:22;;;;;;;13.13;7.28;;;9.10;99.90;;;;;;5019681;28;20110;-76
2023/02/04 02:44:49;;;;;;;11.63;5.00;;;9.00;99.90;;;;;;5025766;28;20041;-77
2023/02/04 02:47:17;;;;;;;14.25;6.28;;;9.10;99.90;;;;;;5034360;28;20065;-76
2023/02/04 02:49:44;;;;;;;12.90;5.43;;;9.00;99.90;;;;;;5017923;28;20145;-77
2023/02/04 02:52:11;;;;;;;12.25;5.53;;;9.00;99.90;;;;;;5013561;28;20078;-76
2023/02/04 02:54:38;;;;;;;20.85;5.28;;;9.00;99.90;;;;;;5018349;28;20064;-77
2023/02/04 02:57:23;;;;;;;14.30;5.30;;;9.00;99.90;;;;;;5033870;28;20113;-75
2023/02/04 02:59:49;;;;;;;12.32;5.18;;;9.10;99.90;;;;;;5021766;28;20088;-76
2023/02/04 03:02:20;;;;;;;13.45;5.25;;;9.00;99.90;;;;;;5016444;28;20711;-76
2023/02/04 03:04:50;;;;;;;12.82;5.65;;;9.10;99.90;;;;;;5011715;28;20060;-76
2023/02/04 03:07:17;;;;;;;15.23;5.55;;;9.10;99.90;;;;;;4981074;28;20048;-77
2023/02/04 03:09:44;;;;;;;12.45;5.50;;;9.10;99.90;;;;;;5008207;28;20128;-76
2023/02/04 03:12:10;;;;;;;13.18;5.70;;;9.10;99.90;;;;;;5030837;28;20052;-76
2023/02/04 03:14:37;;;;;;;11.93;5.35;;;9.20;99.90;;;;;;5009091;28;20129;-76
2023/02/04 03:17:06;;;;;;;9.38;4.97;;;9.20;99.90;;;;;;5028490;28;20077;-76
2023/02/04 03:19:35;;;;;;;10.18;5.68;;;9.20;99.90;;;;;;5028949;28;20124;-76
2023/02/04 03:22:02;;;;;;;10.80;6.07;;;9.20;99.90;;;;;;4996732;28;20124;-76
2023/02/04 03:24:29;;;;;;;11.77;6.07;;;9.20;99.90;;;;;;5014253;28;20045;-76
2023/02/04 03:26:56;;;;;;;8.85;5.32;;;9.30;99.90;;;;;;5014892;28;20053;-77
2023/02/04 03:29:22;;;;;;;13.18;5.80;;;9.30;99.90;;;;;;5012551;28;20037;-76
2023/02/04 03:31:49;;;;;;;11.77;5.22;;;9.30;99.90;;;;;;5025045;28;20050;-75
2023/02/04 03:34:16;;;;;;;14.05;6.63;;;9.30;99.90;;;;;;5014530;28;20045;-75
2023/02/04 03:36:43;;;;;;;15.48;6.57;;;9.30;99.90;;;;;;5004802;28;20068;-75
2023/02/04 03:39:09;;;;;;;15.18;6.25;;;9.30;99.90;;;;;;5032732;28;20049;-75
2023/02/04 03:41:36;;;;;;;13.15;5.85;;;9.20;99.90;;;;;;5017954;28;20037;-75
2023/02/04 03:44:03;;;;;;;14.98;5.63;;;9.20;99.90;;;;;;5032891;28;20485;-76
2023/02/04 03:46:30;;;;;;;12.73;5.68;;;9.30;99.90;;;;;;5027305;28;20089;-76
2023/02/04 03:48:56;;;;;;;12.48;5.68;;;9.30;99.90;;;;;;4995852;28;20571;-77
2023/02/04 03:51:23;;;;;;;13.95;6.68;;;9.30;99.90;;;;;;5024629;28;20050;-77
2023/02/04 03:53:50;;;;;;;11.52;6.60;;;9.30;99.90;;;;;;5032850;28;20050;-76
2023/02/04 03:56:17;;;;;;;14.60;6.65;;;9.30;99.90;;;;;;5028394;28;20064;-77
2023/02/04 03:58:43;;;;;;;18.13;8.18;;;9.20;99.90;;;;;;5015898;28;20046;-76
2023/02/04 04:01:10;;;;;;;12.25;5.97;;;9.20;99.90;;;;;;5020368;28;20144;-77
2023/02/04 04:03:37;;;;;;;9.30;6.38;;;9.20;99.90;;;;;;5017304;28;20052;-76
2023/02/04 04:06:05;;;;;;;12.43;7.22;;;9.20;99.90;;;;;;5030031;28;20493;-75
2023/02/04 04:08:32;;;;;;;13.70;7.00;;;9.20;99.90;;;;;;5032486;28;20064;-77
2023/02/04 04:10:58;;;;;;;14.73;7.18;;;9.30;99.90;;;;;;5028110;28;20053;-76
2023/02/04 04:13:25;;;;;;;17.73;7.40;;;9.20;99.90;;;;;;5022453;28;20050;-76
2023/02/04 04:15:52;;;;;;;11.70;7.35;;;9.20;99.90;;;;;;4998441;28;20424;-76
2023/02/04 04:18:18;;;;;;;12.55;7.43;;;9.20;99.90;;;;;;5003600;28;20050;-77
2023/02/04 04:20:45;;;;;;;14.18;7.28;;;9.20;99.90;;;;;;5031116;28;20049;-77
2023/02/04 04:23:12;;;;;;;12.27;7.32;;;9.20;99.90;;;;;;5024694;28;20411;-75
2023/02/04 04:25:38;;;;;;;13.13;6.97;;;9.20;99.90;;;;;;5032483;28;20050;-75
2023/02/04 04:28:05;;;;;;;13.93;7.60;;;9.20;99.90;;;;;;5025470;28;20052;-75
2023/02/04 04:30:32;;;;;;;12.10;6.85;;;9.20;99.90;;;;;;5013142;28;20108;-76
2023/02/04 04:32:59;;;;;;;15.65;7.85;;;9.20;99.90;;;;;;5024173;28;20050;-76
2023/02/04 04:35:26;;;;;;;14.63;7.53;;;9.20;99.90;;;;;;5012660;28;20069;-76
2023/02/04 04:37:53;;;;;;;15.38;7.80;;;9.20;99.90;;;;;;5016977;28;20049;-76
2023/02/04 04:40:19;;;;;;;11.93;7.30;;;9.20;99.90;;;;;;5035500;28;20084;-76
2023/02/04 04:42:46;;;;;;;18.80;7.88;;;9.20;99.90;;;;;;5026964;28;20045;-76
2023/02/04 04:45:13;;;;;;;15.05;8.23;;;9.20;99.90;;;;;;5033283;28;20128;-76
2023/02/04 04:47:40;;;;;;;14.13;7.60;;;9.10;99.90;;;;;;5029268;28;20074;-77
2023/02/04 04:50:07;;;;;;;10.98;6.53;;;9.20;99.90;;;;;;5030630;28;20150;-76
2023/02/04 04:52:34;;;;;;;17.25;8.48;;;9.20;99.90;;;;;;5031328;28;20038;-76
2023/02/04 04:55:00;;;;;;;17.80;8.35;;;9.20;99.90;;;;;;5018015;28;20054;-76
2023/02/04 04:57:27;;;;;;;15.50;9.25;;;9.30;99.90;;;;;;5022425;28;20055;-77
2023/02/04 04:59:54;;;;;;;12.55;7.15;;;9.30;99.90;;;;;;5028159;28;20085;-77
2023/02/04 05:02:20;;;;;;;15.95;7.53;;;9.30;99.90;;;;;;5036431;28;20052;-76
2023/02/04 05:04:47;;;;;;;12.52;7.55;;;9.30;99.90;;;;;;5029027;28;20045;-77
2023/02/04 05:07:14;;;;;;;12.82;7.05;;;9.30;99.90;;;;;;5018843;28;20551;-78
2023/02/04 05:09:41;;;;;;;17.95;7.85;;;9.30;99.90;;;;;;5028214;28;20167;-77
2023/02/04 05:12:07;;;;;;;13.40;7.25;;;9.30;99.90;;;;;;5015987;28;20129;-76
2023/02/04 05:14:34;;;;;;;16.73;7.35;;;9.20;99.90;;;;;;5027926;28;20075;-76
2023/02/04 05:17:01;;;;;;;13.63;8.07;;;9.20;99.90;;;;;;5015689;28;20277;-76
2023/02/04 05:19:27;;;;;;;11.07;7.85;;;9.20;99.90;;;;;;5019875;28;20057;-76
2023/02/04 05:21:56;;;;;;;13.55;7.22;;;9.20;99.90;;;;;;5016138;28;20121;-76
2023/02/04 05:24:23;;;;;;;13.80;7.47;;;9.20;99.90;;;;;;5020154;28;20049;-77
2023/02/04 05:26:49;;;;;;;16.75;6.97;;;9.20;99.90;;;;;;5016092;28;20093;-77
2023/02/04 05:29:16;;;;;;;15.68;6.80;;;9.10;99.90;;;;;;5018973;28;20235;-77
2023/02/04 05:31:43;;;;;;;13.00;7.50;;;9.20;99.90;;;;;;5031492;28;20056;-77
2023/02/04 05:34:09;;;;;;;14.23;6.75;;;9.20;99.90;;;;;;5029822;28;20054;-76
2023/02/04 05:36:36;;;;;;;9.80;6.75;;;9.20;99.90;;;;;;5031454;28;20136;-77
2023/02/04 05:39:03;;;;;;;12.38;7.15;;;9.20;99.90;;;;;;5033442;28;20440;-76
2023/02/04 05:41:29;;;;;;;11.95;6.50;;;9.20;99.90;;;;;;5028913;28;20060;-76
2023/02/04 05:43:56;;;;;;;12.85;7.40;;;9.20;99.90;;;;;;5032812;28;20144;-76
2023/02/04 05:46:23;;;;;;;13.88;7.60;;;9.10;99.90;;;;;;5028125;28;20064;-77
2023/02/04 05:48:50;;;;;;;14.80;7.03;;;9.20;99.90;;;;;;5017237;28;20034;-78
2023/02/04 05:51:17;;;;;;;10.55;6.45;;;9.20;99.90;;;;;;5026474;28;20049;-77
2023/02/04 05:53:43;;;;;;;12.90;6.57;;;9.20;99.90;;;;;;5014762;28;20128;-75
2023/02/04 05:56:10;;;;;;;14.57;7.30;;;9.20;99.90;;;;;;5033891;28;20059;-76
2023/02/04 05:58:37;;;;;;;11.05;6.50;;;9.10;99.90;;;;;;5034800;28;20068;-77
2023/02/04 06:01:05;;;;;;;11.73;6.30;;;9.10;99.90;;;;;;5004289;28;20107;-76
2023/02/04 06:03:32;;;;;;;11.23;6.55;;;9.10;99.90;;;;;;5034834;28;20128;-79
2023/02/04 06:05:59;;;;;;;9.05;5.93;;;9.10;99.90;;;;;;5030001;28;20049;-76
2023/02/04 06:08:25;;;;;;;11.43;6.55;;;9.10;99.90;;;;;;5016136;28;20325;-76
2023/02/04 06:10:52;;;;;;;9.30;5.80;;;9.10;99.90;;;;;;5025190;28;20056;-76
2023/02/04 06:13:19;;;;;;;13.40;5.65;;;9.10;99.90;;;;;;5016619;28;20130;-78
2023/02/04 06:15:45;;;;;;;14.32;7.68;;;9.10;99.90;;;;;;5022430;28;20041;-77
2023/02/04 06:18:12;;;;;;;8.98;5.13;;;9.10;99.90;;;;;;5019009;28;20587;-77
2023/02/04 06:20:39;;;;;;;10.98;6.28;;;9.10;99.90;;;;;;5018535;28;20488;-76
2023/02/04 06:23:06;;;;;;;10.77;6.10;;;9.10;99.90;;;;;;5015285;28;20049;-76
2023/02/04 06:25:32;;;;;;;9.90;6.30;;;9.10;99.90;;;;;;5018119;28;20124;-76
2023/02/04 06:27:59;;;;;;;9.52;5.50;;;9.10;99.90;;;;;;5023309;28;20046;-76
2023/02/04 06:30:26;;;;;;;11.00;6.65;;;9.10;99.90;;;;;;5015566;28;20049;-76
2023/02/04 06:32:53;;;;;;;9.02;5.57;;;9.20;99.90;;;;;;5025588;28;20049;-76
2023/02/04 06:35:20;;;;;;;11.98;6.38;;;9.10;99.90;;;;;;5016046;28;20698;-78
2023/02/04 06:37:47;;;;;;;11.52;6.35;;;9.20;99.90;;;;;;5024876;28;20573;-78
2023/02/04 06:40:14;;;;;;;10.20;6.50;;;9.10;99.90;;;;;;5014525;28;20054;-77
2023/02/04 06:42:41;;;;;;;10.05;6.25;;;9.20;99.90;;;;;;5026316;28;20466;-76
2023/02/04 06:45:08;;;;;;;9.52;5.30;;;9.20;99.90;;;;;;5014134;28;20083;-77
2023/02/04 06:47:34;;;;;;;11.25;5.85;;;9.10;99.90;;;;;;5026628;28;20492;-76
2023/02/04 06:50:01;;;;;;;13.30;6.82;;;9.10;99.90;;;;;;4996979;28;20058;-77
2023/02/04 06:52:28;;;;;;;13.10;6.57;;;9.10;99.90;;;;;;5019019;28;20132;-76
2023/02/04 06:54:55;;;;;;;9.07;5.93;;;9.00;99.90;;;;;;5033841;28;20053;-77
2023/02/04 06:57:21;;;;;;;8.73;5.47;;;9.00;99.90;;;;;;5023681;28;20057;-76
2023/02/04 06:59:48;;;;;;;9.77;5.60;;;9.00;99.90;;;;;;5032261;28;20052;-76
2023/02/04 07:02:15;;;;;;;7.72;5.20;;;9.00;99.90;;;;;;5027707;28;20148;-77
2023/02/04 07:04:44;;;;;;;16.42;6.07;;;9.00;99.90;;;;;;5019368;28;20096;-76
2023/02/04 07:07:13;;;;;;;6.72;4.60;;;9.00;99.90;;;;;;5020342;28;20064;-77
2023/02/04 07:09:40;;;;;;;8.50;5.72;;;9.00;99.90;;;;;;5021372;28;20068;-78
2023/02/04 07:12:07;;;;;;;8.40;5.82;;;9.00;99.90;;;;;;5018774;28;20042;-78
2023/02/04 07:14:34;;;;;;;9.43;5.95;;;9.00;99.90;;;;;;5038929;28;20064;-75
2023/02/04 07:17:00;;;;;;;9.90;5.85;;;9.00;99.90;;;;;;5019757;28;20049;-74
2023/02/04 07:19:27;;;;;;;9.30;5.95;;;9.00;99.90;;;;;;5032028;28;20106;-76
2023/02/04 07:21:55;;;;;;;10.32;6.07;;;9.00;99.90;;;;;;5021666;28;20763;-77
2023/02/04 07:24:22;;;;;;;8.85;5.45;;;9.00;99.90;;;;;;5033238;28;20054;-76
2023/02/04 07:26:49;;;;;;;8.02;5.70;;;9.00;99.90;;;;;;4997727;28;20150;-77
2023/02/04 07:29:17;;;;;;;10.80;6.38;;;9.00;99.90;;;;;;5022451;28;20400;-77
2023/02/04 07:31:51;;;;;;;9.68;6.15;;;9.00;99.90;;;;;;5030930;28;20049;-78
2023/02/04 07:34:18;;;;;;;8.52;6.00;;;9.10;99.90;;;;;;4653603;28;10000550;-77
2023/02/04 07:36:45;;;;;;;12.00;5.53;;;9.00;99.90;;;;;;5031015;28;20045;-77
2023/02/04 07:39:12;;;;;;;10.60;6.00;;;9.00;99.90;;;;;;5025409;28;20053;-77
2023/02/04 07:41:39;;;;;;;8.65;5.97;;;9.00;99.90;;;;;;5010756;28;20064;-77
2023/02/04 07:44:06;;;;;;;9.27;6.65;;;9.00;99.90;;;;;;5012638;28;20096;-77
2023/02/04 07:46:33;;;;;;;12.07;6.82;;;9.00;99.90;;;;;;5028336;28;20714;-78
2023/02/04 07:49:00;;;;;;;10.43;6.40;;;9.10;99.90;;;;;;5022083;28;20315;-78
2023/02/04 07:51:26;;;;;;;9.02;6.72;;;9.00;99.90;;;;;;5028082;28;20049;-75
2023/02/04 07:53:54;;;;;;;9.77;6.63;;;9.00;99.90;;;;;;5025611;28;20458;-77
2023/02/04 07:56:21;;;;;;;11.40;6.45;;;9.10;99.90;;;;;;5007951;28;20796;-78
2023/02/04 07:58:48;;;;;;;11.07;6.15;;;9.10;99.90;;;;;;5018011;28;20129;-78
2023/02/04 08:01:15;;;;;;;9.30;6.25;;;9.10;99.90;;;;;;5018490;28;20179;-78
2023/02/04 08:03:42;;;;;;;9.30;7.03;;;9.10;99.90;;;;;;5014035;28;20492;-79
2023/02/04 08:06:09;;;;;;;9.05;6.30;;;9.10;99.90;;;;;;5017120;28;20054;-79
2023/02/04 08:08:36;;;;;;;8.77;6.97;;;9.10;99.90;;;;;;5012884;28;20045;-81
2023/02/04 08:11:02;;;;;;;10.90;7.15;;;9.00;99.90;;;;;;5029996;28;20140;-79
2023/02/04 08:13:29;;;;;;;8.80;5.60;;;9.10;99.90;;;;;;5031531;28;20069;-79
2023/02/04 08:15:56;;;;;;;9.02;6.47;;;9.10;99.90;;;;;;5026848;28;20118;-82
2023/02/04 08:18:24;;;;;;;10.05;6.75;;;9.00;99.90;;;;;;5013692;28;20514;-79
2023/02/04 08:20:51;;;;;;;8.63;6.32;;;9.00;99.90;;;;;;5023000;28;20081;-78
2023/02/04 08:23:17;;;;;;;9.38;6.55;;;9.00;99.90;;;;;;5034917;28;20049;-81
2023/02/04 08:25:44;;;;;;;11.57;7.50;;;9.10;99.90;;;;;;5026958;28;20050;-78
2023/02/04 08:28:13;;;;;;;9.85;6.00;;;9.10;99.90;;;;;;5013703;28;20065;-79
2023/02/04 08:30:40;;;;;;;10.65;6.55;;;9.20;99.90;;;;;;5017685;28;20050;-78
2023/02/04 08:33:07;;;;;;;10.38;6.45;;;9.20;99.90;;;;;;5021189;28;20133;-78
2023/02/04 08:35:34;;;;;;;10.88;6.38;;;9.10;99.90;;;;;;5016477;28;20061;-80
2023/02/04 08:38:00;;;;;;;9.93;6.60;;;9.10;99.90;;;;;;5030188;28;20067;-62
2023/02/04 08:40:27;;;;;;;9.55;6.10;;;9.20;99.90;;;;;;5020396;28;20055;-66
2023/02/04 08:42:54;;;;;;;8.32;5.97;;;9.10;99.90;;;;;;5012632;28;20056;-64
2023/02/04 08:45:21;;;;;;;7.78;6.00;;;9.10;99.90;;;;;;5012198;28;20050;-65
2023/02/04 08:47:47;;;;;;;10.15;6.55;;;9.10;99.90;;;;;;5020009;28;20076;-65
2023/02/04 08:50:14;;;;;;;9.35;6.13;;;9.20;99.90;;;;;;5023488;28;20050;-65
2023/02/04 08:52:41;;;;;;;10.68;5.82;;;9.20;99.90;;;;;;5018155;28;20416;-66
2023/02/04 08:55:08;;;;;;;7.38;5.55;;;9.20;99.90;;;;;;5010092;28;20068;-63
2023/02/04 08:57:34;;;;;;;6.38;5.20;;;9.20;99.90;;;;;;5016270;28;20053;-65
2023/02/04 09:00:01;;;;;;;9.27;6.20;;;9.20;99.90;;;;;;5025761;28;20049;-65
2023/02/04 09:02:28;;;;;;;8.40;5.55;;;9.20;99.90;;;;;;5016364;28;20053;-65
2023/02/04 09:04:55;;;;;;;8.82;5.18;;;9.20;99.90;;;;;;5027392;28;20114;-66
2023/02/04 09:07:21;;;;;;;8.55;5.88;;;9.20;99.90;;;;;;5019310;28;20042;-66
2023/02/04 09:09:48;;;;;;;11.20;5.90;;;9.20;99.90;;;;;;5007787;28;20500;-65
2023/02/04 09:12:15;;;;;;;9.98;5.78;;;9.20;99.90;;;;;;5022244;28;20088;-66
2023/02/04 09:14:42;;;;;;;7.82;4.57;;;9.20;99.90;;;;;;5007282;28;21105;-65
2023/02/04 09:17:08;;;;;;;10.23;5.63;;;9.20;99.90;;;;;;5017984;28;20092;-66
2023/02/04 09:19:35;;;;;;;11.27;5.80;;;9.20;99.90;;;;;;5013535;28;20184;-65
2023/02/04 09:22:02;;;;;;;8.20;5.78;;;9.20;99.90;;;;;;5019365;28;20053;-65
2023/02/04 09:24:29;;;;;;;9.55;5.90;;;9.20;99.90;;;;;;5010123;28;20129;-64
2023/02/04 09:26:56;;;;;;;9.45;6.05;;;9.30;99.90;;;;;;5010356;28;20046;-66
2023/02/04 09:29:22;;;;;;;8.63;5.68;;;9.30;99.90;;;;;;5020917;28;20141;-64
2023/02/04 09:31:49;;;;;;;9.70;5.45;;;9.30;99.90;;;;;;5021584;28;20050;-65
2023/02/04 09:34:16;;;;;;;6.60;4.78;;;9.20;99.90;;;;;;5026502;28;20041;-65
2023/02/04 09:36:43;;;;;;;13.63;7.18;;;9.30;99.90;;;;;;5022396;28;20065;-65
2023/02/04 09:39:10;;;;;;;8.82;5.70;;;9.30;99.90;;;;;;5017117;28;20136;-65
2023/02/04 09:41:37;;;;;;;7.38;5.38;;;9.30;99.90;;;;;;5008958;28;20136;-66
2023/02/04 09:44:09;;;;;;;10.73;5.22;;;9.40;99.90;;;;;;5008689;28;20037;-64
2023/02/04 09:46:36;;;;;;;10.60;4.75;;;9.40;99.90;;;;;;5007904;28;20045;-63
2023/02/04 09:49:03;;;;;;;7.70;5.30;;;9.40;99.90;;;;;;5014121;28;20064;-65
2023/02/04 09:51:32;;;;;;;17.65;6.22;;;9.40;99.90;;;;;;5026932;28;20079;-65
2023/02/04 09:54:12;;;;;;;6.45;5.07;;;9.30;99.90;;;;;;5008576;28;20491;-64
2023/02/04 09:56:39;;;;;;;10.45;6.03;;;9.40;99.90;;;;;;5026178;28;20081;-64
2023/02/04 09:59:13;;;;;;;6.80;4.88;;;9.40;99.90;;;;;;5018557;28;20448;-64
2023/02/04 10:01:40;;;;;;;21.45;7.78;;;9.50;99.90;;;;;;4990013;28;20056;-65
2023/02/04 10:04:12;;;;;;;6.50;4.05;;;9.60;99.90;;;;;;5018920;28;20056;-66
2023/02/04 10:06:39;;;;;;;9.52;5.53;;;9.50;99.90;;;;;;5006290;28;20050;-66
2023/02/04 10:09:09;;;;;;;8.30;4.80;;;9.50;99.90;;;;;;5018731;28;20599;-65
2023/02/04 10:11:36;;;;;;;6.95;4.25;;;9.50;99.90;;;;;;4973464;28;20060;-65
2023/02/04 10:14:03;;;;;;;9.27;4.97;;;9.50;99.90;;;;;;5014064;28;20153;-65
2023/02/04 10:16:31;;;;;;;6.47;4.20;;;9.60;99.90;;;;;;5015850;28;20045;-65
2023/02/04 10:19:00;;;;;;;6.97;4.50;;;9.60;99.90;;;;;;5014750;28;20057;-65
2023/02/04 10:21:28;;;;;;;6.47;4.20;;;9.60;99.90;;;;;;4993207;28;20141;-64
2023/02/04 10:23:56;;;;;;;6.72;5.13;;;9.60;99.90;;;;;;5009970;28;20054;-65
2023/02/04 10:26:25;;;;;;;6.00;4.07;;;9.60;99.90;;;;;;5003476;28;20053;-65
2023/02/04 10:29:00;;;;;;;5.85;3.95;;;9.60;99.90;;;;;;5002918;28;20046;-65
2023/02/04 10:31:36;;;;;;;8.00;3.75;;;9.70;99.90;;;;;;5019478;28;20050;-65
2023/02/04 10:34:10;;;;;;;7.25;4.00;;;9.70;99.90;;;;;;5019879;28;20172;-66
2023/02/04 10:36:37;;;;;;;;;;;9.70;99.90;;;;;;5009407;28;20575;-66
2023/02/04 10:39:24;;;;;;;8.07;3.55;;;9.70;99.90;;;;;;5007078;28;20403;-65
2023/02/04 10:41:52;;;;;;;5.82;2.95;;;9.80;99.90;;;;;;5017321;28;20049;-65
2023/02/04 10:44:24;;;;;;;4.57;2.70;;;9.70;99.90;;;;;;5001457;28;20625;-66
2023/02/04 10:47:02;;;;;;;6.75;3.22;;;9.80;99.90;;;;;;5010921;28;20060;-64
2023/02/04 10:49:29;;;;;;;5.28;3.08;;;9.80;99.90;;;;;;4990108;28;20038;-65
2023/02/04 10:51:55;;;;;;;7.55;4.15;;;9.80;99.90;;;;;;5016584;28;20053;-66
2023/02/04 10:54:34;;;;;;;3.55;2.30;;;9.80;99.90;;;;;;5021963;28;20041;-64
2023/02/04 10:57:01;;;;;;;8.55;2.63;;;9.80;99.90;;;;;;5014707;28;20306;-64
2023/02/04 10:59:28;;;;;;;3.65;2.35;;;9.80;99.90;;;;;;5022886;28;20480;-63
2023/02/04 11:01:55;;;;;;;3.47;1.60;;;9.90;99.90;;;;;;5023271;28;20164;-65
2023/02/04 11:04:23;;;;;;;7.95;1.77;;;9.90;99.90;;;;;;5022539;28;20394;-64
2023/02/04 11:06:53;;;;;;;4.75;1.63;;;9.90;99.90;;;;;;5014885;28;20049;-64
2023/02/04 11:09:20;;;;;;;2.53;1.75;;;9.90;99.90;;;;;;5005805;28;20129;-64
2023/02/04 11:11:47;;;;;;;8.18;1.90;;;9.90;99.90;;;;;;5012475;28;20060;-65
2023/02/04 11:14:28;;;;;;;3.28;1.63;;;9.90;99.90;;;;;;5007757;28;20056;-64
2023/02/04 11:16:59;;;;;;;8.13;1.30;;;10.00;99.90;;;;;;5012589;28;20328;-65
2023/02/04 11:19:37;;;;;;;7.05;2.00;;;10.00;99.90;;;;;;5024436;28;20065;-65
2023/02/04 11:22:23;;;;;;;9.30;1.92;;;10.00;99.90;;;;;;5018183;28;20100;-65
2023/02/04 11:24:50;;;;;;;9.25;1.33;;;10.10;99.90;;;;;;5005321;28;20100;-65
2023/02/04 11:27:23;;;;;;;6.63;1.65;;;10.10;99.90;;;;;;5001508;28;20060;-65
2023/02/04 11:29:49;;;;;;;11.10;1.80;;;10.20;99.90;;;;;;5004915;28;20089;-64
2023/02/04 11:32:36;;;;;;;9.75;1.58;;;10.20;99.90;;;;;;5011929;28;20042;-63
2023/02/04 11:35:10;;;;;;;6.70;1.75;;;10.20;99.90;;;;;;5006962;28;20119;-64
2023/02/04 11:37:38;;;;;;;;;;;10.30;99.90;;;;;;5014940;28;20045;-63
2023/02/04 11:40:34;;;;;;;1.67;1.25;;;10.20;99.90;;;;;;5004723;28;19957;-65
2023/02/04 11:43:15;;;;;;;9.07;2.13;;;10.20;99.90;;;;;;5014333;28;20058;-65
2023/02/04 11:45:42;;;;;;;2.80;1.25;;;10.20;99.90;;;;;;5006189;28;20063;-66
2023/02/04 11:48:13;;;;;;;15.57;2.22;;;10.40;99.90;;;;;;5014792;28;20607;-64
2023/02/04 11:50:40;;;;;;;4.65;1.10;;;10.50;99.90;;;;;;5004243;28;20054;-65
2023/02/04 11:53:10;;;;;;;11.40;1.98;;;10.50;99.90;;;;;;4996760;28;20076;-63
2023/02/04 11:55:43;;;;;;;15.45;2.67;;;10.50;99.90;;;;;;5023973;28;20054;-64
2023/02/04 11:58:17;;;;;;;13.50;1.58;;;10.50;99.90;;;;;;5013098;28;20293;-64
2023/02/04 12:00:44;;;;;;;22.02;4.57;;;10.50;99.90;;;;;;5024439;28;20128;-65
2023/02/04 12:03:33;;;;;;;5.47;1.60;;;10.50;99.90;;;;;;4978459;28;20053;-65
2023/02/04 12:06:00;;;;;;;4.28;1.38;;;10.50;99.90;;;;;;5024938;28;20466;-65
2023/02/04 12:08:31;;;;;;;22.45;2.13;;;10.50;99.90;;;;;;5016733;28;20104;-65
2023/02/04 12:11:11;;;;;;;9.00;2.72;;;10.50;99.90;;;;;;5005054;28;20053;-64
2023/02/04 12:13:51;;;;;;;3.88;2.15;;;10.50;99.90;;;;;;5017664;28;20083;-64
2023/02/04 12:16:18;;;;;;;7.90;1.90;;;10.50;99.90;;;;;;4988274;28;20077;-65
2023/02/04 12:18:44;;;;;;;4.90;2.13;;;10.50;99.90;;;;;;5012356;28;20509;-64
2023/02/04 12:21:13;;;;;;;11.18;2.35;;;10.50;99.90;;;;;;5024680;28;20053;-65
2023/02/04 12:23:41;;;;;;;12.13;2.63;;;10.40;99.90;;;;;;5001350;28;20087;-65
2023/02/04 12:26:08;;;;;;;9.18;3.45;;;10.40;99.90;;;;;;5004102;28;20140;-64
2023/02/04 12:28:35;;;;;;;7.45;3.70;;;10.40;99.90;;;;;;5008239;28;20050;-63
2023/02/04 12:31:02;;;;;;;11.52;2.67;;;10.40;99.90;;;;;;5022893;28;20505;-64
2023/02/04 12:33:29;;;;;;;7.20;3.03;;;10.40;99.90;;;;;;5014529;28;20053;-63
2023/02/04 12:35:55;;;;;;;21.17;3.63;;;10.40;99.90;;;;;;5021271;28;20057;-63
2023/02/04 12:38:22;;;;;;;10.43;2.75;;;10.30;99.90;;;;;;5014687;28;20509;-63
2023/02/04 12:40:49;;;;;;;9.85;2.30;;;10.30;99.90;;;;;;5018473;28;20076;-64
2023/02/04 12:43:16;;;;;;;15.93;3.17;;;10.30;99.90;;;;;;5019056;28;20060;-63
2023/02/04 12:45:45;;;;;;;20.67;2.85;;;10.40;99.90;;;;;;5012018;28;20065;-62
2023/02/04 12:48:12;;;;;;;6.35;2.05;;;10.40;99.90;;;;;;5008158;28;20148;-62
2023/02/04 12:50:40;;;;;;;25.75;2.75;;;10.40;99.90;;;;;;4996985;28;20048;-64
2023/02/04 12:53:06;;;;;;;14.00;2.53;;;10.20;99.90;;;;;;5020387;28;20111;-66